This is the latest recevied weather packets stored in our database for station/object K9RCP-24. If no packets are shown the sender has not sent any weather packets the latest 10 day(s).
| Time | Temp. | Humidity | Pressure | Rain* | Wind** | Luminosity | Snow |
|---|---|---|---|---|---|---|---|
| 1777757523 | 18.89° C | 60% | 1017.9 hPa | 0 mm | - | - | - |
| 1777757113 | 18.33° C | 62% | 1017.9 hPa | 0 mm | - | - | - |
| 1777756856 | 17.78° C | 62% | 1017.9 hPa | 0 mm | - | - | - |
| 1777756175 | 18.89° C | 59% | 1018.3 hPa | 0 mm | - | - | - |
| 1777754771 | 17.22° C | 61% | 1018.3 hPa | 0 mm | - | - | - |
| 1777754512 | 17.78° C | 62% | 1018.3 hPa | 0 mm | - | - | - |
| 1777754256 | 17.78° C | 60% | 1018.6 hPa | 0 mm | - | - | - |
| 1777753846 | 17.78° C | 60% | 1018.6 hPa | 0 mm | - | - | - |
| 1777753721 | 17.78° C | 61% | 1018.6 hPa | 0 mm | - | - | - |
| 1777753466 | 17.78° C | 60% | 1019 hPa | 0 mm | - | - | - |
| 1777752669 | 16.67° C | 64% | 1019 hPa | 0 mm | - | - | - |
| 1777752001 | 16.11° C | 66% | 1019.3 hPa | 0 mm | - | - | - |
| 1777750399 | 16.11° C | 64% | 1019.6 hPa | 0 mm | - | - | - |
| 1777749586 | 16.11° C | 63% | 1019.6 hPa | 0 mm | - | - | - |
| 1777749198 | 15.56° C | 68% | 1020 hPa | 0 mm | - | - | - |
| 1777747968 | 13.33° C | 72% | 1020.3 hPa | 0 mm | - | - | - |
| 1777747715 | 13.33° C | 73% | 1020 hPa | 0 mm | - | - | - |
| 1777747334 | 12.78° C | 75% | 1020 hPa | 0 mm | - | - | - |
| 1777746514 | 12.78° C | 73% | 1019.6 hPa | 0 mm | - | - | - |
| 1777746492 | 13.33° C | 72% | 1019.6 hPa | 0 mm | - | - | - |
| 1777745851 | 13.33° C | 71% | 1020 hPa | 0 mm | - | - | - |
| 1777745597 | 13.89° C | 71% | 1020 hPa | 0 mm | - | - | - |
| 1777744652 | 13.89° C | 68% | 1020.3 hPa | 0 mm | - | - | - |
| 1777744272 | 14.44° C | 66% | 1020 hPa | 0 mm | - | - | - |
| 1777743761 | 13.89° C | 70% | 1020.3 hPa | 0 mm | - | - | - |
* Rain latest hour (hover to see other rain measurements)
** Current wind speed in m/s (hover to see current wind gust speed)